Time;durP1;ratioP1;P1;durP2;ratioP2;P2;SDS_P1;SDS_P2;PMS_P1;PMS_P2;Temp;Humidity;BMP_temperature;BMP_pressure;BME280_temperature;BME280_humidity;BME280_pressure;Samples;Min_cycle;Max_cycle;Signal;HPM_P1;HPM_P2
2022/05/16 00:02:25;;;;;;;6.40;5.90;;;19.70;99.90;;;;;;6202649;28;20212;-63
2022/05/16 00:05:28;;;;;;;7.20;6.60;;;19.60;99.90;;;;;;6202093;28;20224;-63
2022/05/16 00:08:31;;;;;;;6.73;6.20;;;19.60;99.90;;;;;;6202271;28;20229;-63
2022/05/16 00:11:36;;;;;;;6.83;6.33;;;19.60;99.90;;;;;;6201478;28;20225;-62
2022/05/16 00:14:42;;;;;;;6.30;5.70;;;19.50;99.90;;;;;;6198450;28;20198;-62
2022/05/16 00:17:45;;;;;;;7.30;6.70;;;19.40;99.90;;;;;;6201696;28;20234;-63
2022/05/16 00:20:48;;;;;;;6.60;6.10;;;19.40;99.90;;;;;;6199298;28;20583;-63
2022/05/16 00:23:52;;;;;;;7.43;6.83;;;19.40;99.90;;;;;;6201971;28;20222;-62
2022/05/16 00:26:58;;;;;;;7.40;6.80;;;19.30;99.90;;;;;;6201291;28;20654;-63
2022/05/16 00:30:02;;;;;;;6.57;6.07;;;19.30;99.90;;;;;;6199995;28;20236;-63
2022/05/16 00:33:05;;;;;;;7.13;6.47;;;19.20;99.90;;;;;;6199380;28;20245;-62
2022/05/16 00:36:08;;;;;;;8.67;6.60;;;19.10;99.90;;;;;;6200068;28;20233;-63
2022/05/16 00:39:11;;;;;;;6.70;6.13;;;19.10;99.90;;;;;;6199749;28;20218;-63
2022/05/16 00:42:16;;;;;;;7.50;6.80;;;19.10;99.90;;;;;;6200098;28;20243;-63
2022/05/16 00:45:19;;;;;;;6.10;5.60;;;19.10;99.90;;;;;;6198436;28;20730;-63
2022/05/16 00:48:23;;;;;;;7.47;6.93;;;19.10;99.90;;;;;;6200855;28;20594;-62
2022/05/16 00:51:32;;;;;;;6.40;5.90;;;19.10;99.90;;;;;;6200700;28;20221;-62
2022/05/16 00:54:40;;;;;;;5.83;5.40;;;19.00;99.90;;;;;;6199872;28;20568;-62
2022/05/16 00:57:48;;;;;;;7.53;6.73;;;18.90;99.90;;;;;;6200050;28;20690;-62
2022/05/16 01:00:51;;;;;;;7.17;6.67;;;18.90;99.90;;;;;;6199173;28;20222;-61
2022/05/16 01:07:22;;;;;;;6.57;6.10;;;18.80;99.90;;;;;;6200144;28;20230;-61
2022/05/16 01:10:26;;;;;;;6.93;6.40;;;18.70;99.90;;;;;;6199880;28;20237;-60
2022/05/16 01:13:31;;;;;;;7.23;6.60;;;18.70;99.90;;;;;;6199989;28;20589;-61
2022/05/16 01:16:35;;;;;;;6.70;6.10;;;18.60;99.90;;;;;;6200426;28;20240;-61
2022/05/16 01:19:38;;;;;;;6.77;6.27;;;18.60;99.90;;;;;;6197929;28;20240;-62
2022/05/16 01:22:45;;;;;;;7.70;7.00;;;18.50;99.90;;;;;;6187424;28;20230;-61
2022/05/16 01:25:49;;;;;;;6.53;5.93;;;18.40;99.90;;;;;;6201117;28;20237;-61
2022/05/16 01:28:53;;;;;;;6.70;6.10;;;18.40;99.90;;;;;;6200957;28;20230;-61
2022/05/16 01:31:56;;;;;;;6.77;6.07;;;18.30;99.90;;;;;;6201008;28;20243;-61
2022/05/16 01:34:59;;;;;;;6.90;6.40;;;18.30;99.90;;;;;;6201027;28;20469;-61
2022/05/16 01:38:23;;;;;;;7.30;6.70;;;18.30;99.90;;;;;;6201419;28;20234;-61
2022/05/16 01:41:27;;;;;;;8.33;7.03;;;18.30;99.90;;;;;;6201144;28;20226;-61
2022/05/16 01:44:30;;;;;;;7.17;6.57;;;18.20;99.90;;;;;;6200994;28;20638;-62
2022/05/16 01:47:33;;;;;;;7.50;6.80;;;18.20;99.90;;;;;;6204889;28;20226;-62
2022/05/16 01:50:37;;;;;;;7.30;6.60;;;18.10;99.90;;;;;;6205542;28;20216;-61
2022/05/16 01:53:43;;;;;;;7.97;6.60;;;18.00;99.90;;;;;;6205819;28;20236;-61
2022/05/16 01:56:47;;;;;;;6.70;6.10;;;18.10;99.90;;;;;;6205837;28;20464;-62
2022/05/16 01:59:50;;;;;;;6.90;6.40;;;18.00;99.90;;;;;;6204838;28;20638;-62
2022/05/16 02:02:53;;;;;;;7.50;6.33;;;18.00;99.90;;;;;;6205604;28;20796;-62
2022/05/16 02:05:56;;;;;;;7.03;6.30;;;18.00;99.90;;;;;;6205247;28;20824;-62
2022/05/16 02:09:01;;;;;;;7.90;7.20;;;17.90;99.90;;;;;;6205604;28;20229;-62
2022/05/16 02:12:05;;;;;;;7.70;7.10;;;17.90;99.90;;;;;;6205291;28;20242;-62
2022/05/16 02:15:11;;;;;;;7.50;6.90;;;17.90;99.90;;;;;;6204984;28;20479;-62
2022/05/16 02:18:14;;;;;;;6.17;5.67;;;17.90;99.90;;;;;;6204775;28;20541;-62
2022/05/16 02:24:39;;;;;;;7.60;6.80;;;17.80;99.90;;;;;;6204665;28;20483;-62
2022/05/16 02:27:43;;;;;;;7.10;6.47;;;17.80;99.90;;;;;;6204830;28;20569;-62
2022/05/16 02:30:47;;;;;;;6.60;6.10;;;17.70;99.90;;;;;;6204648;28;20953;-62
2022/05/16 02:33:51;;;;;;;7.33;6.63;;;17.80;99.90;;;;;;6204763;28;20488;-62
2022/05/16 02:36:54;;;;;;;6.60;6.10;;;17.70;99.90;;;;;;6204504;28;20477;-61
2022/05/16 02:39:59;;;;;;;7.60;6.47;;;17.70;99.90;;;;;;6204493;28;20806;-61
2022/05/16 02:43:02;;;;;;;7.27;6.57;;;17.70;99.90;;;;;;6204307;28;20493;-61
2022/05/16 02:46:06;;;;;;;6.70;6.10;;;17.60;99.90;;;;;;6204517;28;20530;-62
2022/05/16 02:49:09;;;;;;;6.63;6.13;;;17.60;99.90;;;;;;6204094;28;20993;-62
2022/05/16 02:52:13;;;;;;;7.77;7.07;;;17.60;99.90;;;;;;6204166;28;20984;-62
2022/05/16 02:55:22;;;;;;;7.20;6.50;;;17.50;99.90;;;;;;6203975;28;20487;-62
2022/05/16 02:58:25;;;;;;;7.87;7.20;;;17.50;99.90;;;;;;6203042;28;20847;-62
2022/05/16 03:01:29;;;;;;;7.33;6.20;;;17.50;99.90;;;;;;6203506;28;20477;-62
2022/05/16 03:04:32;;;;;;;5.50;5.10;;;17.50;99.90;;;;;;6203560;28;20488;-62
2022/05/16 03:07:35;;;;;;;6.73;6.23;;;17.50;99.90;;;;;;6203751;28;20488;-62
2022/05/16 03:10:40;;;;;;;8.50;6.40;;;17.40;99.90;;;;;;6203456;28;20476;-62
2022/05/16 03:13:43;;;;;;;7.40;6.50;;;17.40;99.90;;;;;;6203680;28;20473;-62
2022/05/16 03:16:47;;;;;;;6.70;6.10;;;17.40;99.90;;;;;;6203472;28;20237;-62
2022/05/16 03:19:50;;;;;;;6.60;6.00;;;17.40;99.90;;;;;;6203537;28;20488;-62
2022/05/16 03:22:53;;;;;;;6.47;5.70;;;17.30;99.90;;;;;;6203367;28;20464;-62
2022/05/16 03:25:58;;;;;;;6.90;6.30;;;17.30;99.90;;;;;;6198913;28;20476;-62
2022/05/16 03:29:01;;;;;;;6.87;6.30;;;17.30;99.90;;;;;;6203222;28;20483;-61
2022/05/16 03:32:06;;;;;;;7.70;7.00;;;17.20;99.90;;;;;;6203229;28;20808;-61
2022/05/16 03:35:10;;;;;;;6.77;6.23;;;17.20;99.90;;;;;;6203161;28;20485;-62
2022/05/16 03:40:41;;;;;;;7.33;6.73;;;17.20;99.90;;;;;;6203102;28;20484;-62
2022/05/16 03:41:37;;;;;;;7.17;6.53;;;17.30;99.90;;;;;;6203117;28;20454;-61
2022/05/16 03:44:41;;;;;;;7.33;6.70;;;17.20;99.90;;;;;;6203130;28;20441;-61
2022/05/16 03:47:44;;;;;;;7.17;6.67;;;17.30;99.90;;;;;;6203139;28;20465;-62
2022/05/16 03:50:47;;;;;;;7.73;6.87;;;17.30;99.90;;;;;;6203059;28;20465;-61
2022/05/16 03:53:50;;;;;;;7.43;6.93;;;17.30;99.90;;;;;;6202867;28;20472;-61
2022/05/16 03:56:55;;;;;;;7.47;6.77;;;17.30;99.90;;;;;;6202772;28;20484;-62
2022/05/16 03:59:58;;;;;;;9.13;6.13;;;17.20;99.90;;;;;;6202372;28;20468;-62
2022/05/16 04:03:01;;;;;;;7.47;6.87;;;17.30;99.90;;;;;;6202320;28;20469;-62
2022/05/16 04:06:05;;;;;;;7.13;6.47;;;17.30;99.90;;;;;;6202457;28;20473;-62
2022/05/16 04:09:08;;;;;;;7.27;6.67;;;17.40;99.90;;;;;;6201523;28;20472;-62
2022/05/16 04:12:13;;;;;;;8.00;7.00;;;17.40;99.90;;;;;;6202504;28;20465;-63
2022/05/16 04:15:16;;;;;;;7.60;6.80;;;17.40;99.90;;;;;;6202001;28;20485;-62
2022/05/16 04:18:20;;;;;;;7.30;6.60;;;17.50;99.90;;;;;;6202111;28;20492;-62
2022/05/16 04:21:23;;;;;;;7.87;7.17;;;17.50;99.90;;;;;;6202100;28;20567;-62
2022/05/16 04:24:26;;;;;;;6.50;6.00;;;17.50;99.90;;;;;;6202359;28;20473;-63
2022/05/16 04:27:31;;;;;;;10.30;7.70;;;17.60;99.90;;;;;;6201929;28;20472;-62
2022/05/16 04:30:35;;;;;;;6.77;6.10;;;17.50;99.90;;;;;;6202009;28;20476;-63
2022/05/16 04:33:38;;;;;;;8.47;7.63;;;17.60;99.90;;;;;;6202124;28;20485;-62
2022/05/16 04:36:41;;;;;;;7.30;6.80;;;17.70;99.90;;;;;;6202353;28;20480;-62
2022/05/16 04:39:44;;;;;;;7.50;6.80;;;17.80;99.90;;;;;;6202435;28;20987;-63
2022/05/16 04:42:48;;;;;;;7.40;6.70;;;17.90;99.90;;;;;;6202125;28;20488;-62
2022/05/16 04:45:51;;;;;;;7.47;6.83;;;18.00;99.90;;;;;;6201744;28;20552;-63
2022/05/16 04:48:54;;;;;;;6.83;6.27;;;18.10;99.90;;;;;;6201522;28;20480;-63
2022/05/16 04:51:58;;;;;;;7.73;7.13;;;18.10;99.90;;;;;;6201435;28;20969;-63
2022/05/16 04:55:02;;;;;;;6.70;6.07;;;18.20;99.90;;;;;;6200774;28;20233;-62
2022/05/16 04:58:07;;;;;;;9.27;6.40;;;18.30;99.90;;;;;;6200025;28;20241;-62
2022/05/16 05:01:10;;;;;;;7.10;6.50;;;18.40;99.90;;;;;;6199661;28;20244;-62
2022/05/16 05:04:14;;;;;;;8.13;6.77;;;18.50;99.90;;;;;;6200044;28;20240;-63
2022/05/16 05:07:17;;;;;;;7.57;6.97;;;18.70;99.90;;;;;;6199649;28;20248;-62
2022/05/16 05:17:09;;;;;;;9.37;8.50;;;19.30;99.90;;;;;;6199441;28;20237;-62
2022/05/16 05:20:14;;;;;;;8.93;8.03;;;19.50;99.90;;;;;;6201841;28;20244;-63
2022/05/16 05:23:17;;;;;;;9.63;7.67;;;19.60;99.90;;;;;;6204570;28;20225;-64
2022/05/16 05:26:20;;;;;;;10.43;8.50;;;19.80;99.90;;;;;;6204725;28;20247;-62
2022/05/16 05:29:25;;;;;;;8.83;8.13;;;20.00;99.90;;;;;;6204516;28;20232;-62
2022/05/16 05:32:28;;;;;;;9.27;8.47;;;20.10;99.90;;;;;;6195837;28;20209;-62
2022/05/16 05:35:31;;;;;;;11.33;8.03;;;20.30;99.90;;;;;;6205284;28;20232;-62
2022/05/16 05:38:36;;;;;;;11.53;9.40;;;20.50;99.50;;;;;;6206150;28;20225;-63
2022/05/16 05:41:39;;;;;;;9.90;8.97;;;20.70;99.10;;;;;;6205678;28;20357;-62
2022/05/16 05:44:44;;;;;;;11.30;9.10;;;20.80;99.20;;;;;;6205599;28;20244;-62
2022/05/16 05:47:47;;;;;;;10.00;8.70;;;21.10;98.70;;;;;;6205434;28;20234;-63
2022/05/16 05:50:50;;;;;;;12.60;11.10;;;21.50;98.50;;;;;;6205896;28;20237;-63
2022/05/16 05:53:53;;;;;;;10.37;9.47;;;22.10;97.30;;;;;;6205557;28;20242;-63
2022/05/16 05:56:56;;;;;;;10.57;9.63;;;22.70;96.40;;;;;;6205256;28;20248;-63
2022/05/16 06:00:02;;;;;;;16.60;10.10;;;23.30;95.20;;;;;;6205503;28;20686;-63
2022/05/16 06:03:06;;;;;;;10.90;9.87;;;23.80;94.20;;;;;;6205763;28;20248;-63
2022/05/16 06:06:09;;;;;;;11.53;9.43;;;24.40;92.80;;;;;;6205234;28;20525;-64
2022/05/16 06:09:12;;;;;;;12.57;8.70;;;25.20;90.80;;;;;;6205415;28;20236;-64
2022/05/16 06:12:15;;;;;;;9.83;8.43;;;25.70;89.60;;;;;;6205440;28;20225;-64
2022/05/16 06:15:20;;;;;;;9.73;8.93;;;26.30;86.20;;;;;;6205201;28;20226;-65
2022/05/16 06:18:24;;;;;;;9.93;9.00;;;26.50;83.20;;;;;;6205243;28;20241;-65
2022/05/16 06:21:27;;;;;;;10.10;9.10;;;26.90;81.00;;;;;;6205258;28;20239;-65
2022/05/16 06:27:51;;;;;;;8.97;8.17;;;28.10;73.50;;;;;;6204991;28;20327;-64
2022/05/16 06:30:57;;;;;;;8.97;8.20;;;28.60;69.70;;;;;;6204427;28;20233;-64
2022/05/16 06:34:00;;;;;;;9.10;8.30;;;29.10;67.60;;;;;;6205166;28;20229;-66
2022/05/16 06:37:04;;;;;;;10.23;9.07;;;29.80;65.00;;;;;;6195824;28;20339;-66
2022/05/16 06:40:08;;;;;;;9.63;7.83;;;30.50;61.30;;;;;;6205239;28;20598;-64
2022/05/16 06:43:12;;;;;;;8.57;7.73;;;30.70;56.40;;;;;;6205283;28;20794;-63
2022/05/16 06:46:16;;;;;;;8.82;7.38;;;31.00;55.10;;;;;;6204218;28;20233;-63
2022/05/16 06:49:20;;;;;;;6.90;6.30;;;31.40;53.40;;;;;;6204236;28;20233;-64
2022/05/16 06:52:24;;;;;;;7.13;6.55;;;32.40;51.40;;;;;;6203997;28;20247;-64
2022/05/16 06:55:27;;;;;;;8.52;6.90;;;33.30;48.60;;;;;;6204607;28;20233;-63
2022/05/16 06:58:30;;;;;;;7.05;6.40;;;33.70;46.90;;;;;;6204169;28;20574;-64
2022/05/16 07:01:36;;;;;;;6.57;6.05;;;34.10;45.40;;;;;;6203999;28;20233;-64
2022/05/16 07:04:40;;;;;;;6.70;5.93;;;34.50;43.30;;;;;;6204116;28;20243;-64
2022/05/16 07:07:43;;;;;;;6.25;5.60;;;34.40;41.90;;;;;;6203968;28;20229;-63
2022/05/16 07:10:48;;;;;;;5.85;5.43;;;35.10;41.40;;;;;;6203954;28;20237;-64
2022/05/16 07:13:57;;;;;;;6.50;5.90;;;35.90;40.30;;;;;;6204010;28;20225;-64
2022/05/16 07:17:01;;;;;;;6.45;5.90;;;36.80;38.40;;;;;;6203385;28;20720;-64
2022/05/16 07:20:06;;;;;;;6.35;5.85;;;37.50;37.70;;;;;;6203800;28;20225;-64
2022/05/16 07:23:09;;;;;;;6.80;6.32;;;37.70;36.30;;;;;;6203581;28;20240;-64
2022/05/16 07:29:33;;;;;;;6.97;6.43;;;39.20;33.90;;;;;;6203301;28;20244;-64
2022/05/16 07:32:41;;;;;;;8.48;6.18;;;40.10;32.60;;;;;;6203489;28;20205;-64
2022/05/16 07:35:45;;;;;;;10.07;6.65;;;40.70;31.70;;;;;;6203969;28;20372;-64
2022/05/16 07:38:48;;;;;;;6.30;5.85;;;41.20;30.10;;;;;;6199125;28;20251;-64
2022/05/16 07:41:54;;;;;;;6.32;5.13;;;40.90;30.00;;;;;;6202435;28;20233;-64
2022/05/16 07:45:00;;;;;;;6.43;5.82;;;41.30;29.60;;;;;;6202383;28;20229;-64
2022/05/16 07:48:05;;;;;;;6.63;5.60;;;41.70;29.10;;;;;;6200281;28;20777;-63
2022/05/16 07:51:09;;;;;;;6.75;6.13;;;41.90;28.60;;;;;;6202847;28;20235;-63
2022/05/16 07:54:12;;;;;;;5.95;5.45;;;41.70;28.40;;;;;;6202114;28;20747;-64
2022/05/16 07:57:15;;;;;;;5.93;5.32;;;41.20;28.80;;;;;;6202692;28;20716;-63
2022/05/16 08:00:24;;;;;;;7.45;6.75;;;41.10;29.40;;;;;;6201599;28;20564;-64
2022/05/16 08:03:30;;;;;;;7.32;6.55;;;40.50;28.90;;;;;;6201894;28;20227;-63
2022/05/16 08:06:34;;;;;;;7.70;6.70;;;40.90;28.80;;;;;;6202156;28;20229;-65
2022/05/16 08:12:58;;;;;;;7.32;6.82;;;40.70;29.00;;;;;;6202484;28;20260;-65
2022/05/16 08:16:01;;;;;;;6.63;6.03;;;39.90;29.90;;;;;;6201872;28;20248;-63
2022/05/16 08:19:07;;;;;;;7.07;6.60;;;39.00;30.40;;;;;;6201983;28;20291;-65
2022/05/16 08:22:10;;;;;;;6.43;5.93;;;38.10;31.10;;;;;;6202013;28;20562;-64
2022/05/16 08:25:14;;;;;;;6.65;6.15;;;37.10;32.60;;;;;;6202054;28;20239;-63
2022/05/16 08:28:18;;;;;;;6.45;5.90;;;36.40;33.60;;;;;;6201762;28;20620;-63
2022/05/16 08:31:21;;;;;;;7.30;6.72;;;36.00;34.50;;;;;;6201836;28;20233;-64
2022/05/16 08:34:26;;;;;;;7.40;6.70;;;35.50;34.90;;;;;;6201746;28;20252;-65
2022/05/16 08:40:55;;;;;;;8.02;7.22;;;34.10;37.20;;;;;;6202776;28;20566;-63
2022/05/16 08:44:08;;;;;;;7.35;6.68;;;33.70;38.10;;;;;;6201657;28;20243;-64
2022/05/16 08:47:21;;;;;;;7.15;6.65;;;33.30;38.70;;;;;;6188011;28;20298;-64
2022/05/16 08:50:34;;;;;;;7.38;6.75;;;32.70;40.00;;;;;;6201303;28;20243;-64
2022/05/16 08:53:41;;;;;;;6.90;6.40;;;32.30;41.20;;;;;;6201213;28;20221;-63
2022/05/16 08:56:46;;;;;;;9.98;8.07;;;32.20;41.60;;;;;;6200689;28;20291;-64
2022/05/16 08:59:58;;;;;;;7.50;6.53;;;32.20;41.80;;;;;;6201115;28;20681;-64
2022/05/16 09:03:04;;;;;;;7.95;7.35;;;32.20;41.60;;;;;;6201383;28;20225;-63
2022/05/16 09:06:15;;;;;;;7.47;6.55;;;32.10;41.80;;;;;;6201243;28;20221;-63
2022/05/16 09:09:21;;;;;;;9.32;7.63;;;31.90;42.30;;;;;;6201329;28;20221;-63
2022/05/16 09:12:28;;;;;;;6.57;6.18;;;31.70;42.50;;;;;;6201381;28;20688;-64
2022/05/16 09:15:49;;;;;;;6.97;6.47;;;31.40;42.90;;;;;;6201122;28;20229;-62
2022/05/16 09:19:00;;;;;;;7.38;6.68;;;31.30;43.20;;;;;;6201288;28;20359;-63
2022/05/16 09:22:12;;;;;;;8.13;7.35;;;31.10;44.60;;;;;;6200846;28;20228;-63
2022/05/16 09:25:20;;;;;;;7.70;7.10;;;30.90;44.40;;;;;;6201288;28;20233;-61
2022/05/16 09:28:37;;;;;;;7.38;6.78;;;30.60;44.40;;;;;;6201126;28;20251;-63
2022/05/16 09:31:44;;;;;;;8.48;7.38;;;30.50;44.80;;;;;;6201081;28;20579;-62
2022/05/16 09:34:48;;;;;;;8.38;6.70;;;30.50;44.80;;;;;;6201275;28;20240;-64
2022/05/16 09:37:56;;;;;;;7.47;6.78;;;30.50;45.10;;;;;;6200644;28;20239;-63
2022/05/16 09:41:14;;;;;;;7.15;6.55;;;30.60;45.00;;;;;;6200876;28;20239;-64
2022/05/16 09:44:24;;;;;;;7.32;6.72;;;30.60;45.10;;;;;;6200586;28;20233;-65
2022/05/16 09:47:37;;;;;;;8.23;7.47;;;30.50;46.10;;;;;;6191599;28;20217;-64
2022/05/16 09:50:40;;;;;;;8.13;7.32;;;30.20;46.40;;;;;;6200791;28;20208;-63
2022/05/16 09:53:45;;;;;;;7.93;7.22;;;30.10;47.00;;;;;;6201133;28;20213;-64
2022/05/16 09:57:16;;;;;;;7.90;7.20;;;30.20;47.00;;;;;;6200653;28;20233;-62
2022/05/16 10:00:25;;;;;;;7.53;6.93;;;29.60;47.90;;;;;;6200476;28;20689;-63
2022/05/16 10:03:31;;;;;;;8.13;7.50;;;29.20;48.90;;;;;;6200703;28;20275;-62
2022/05/16 10:06:41;;;;;;;8.70;8.00;;;29.30;48.70;;;;;;6201133;28;20233;-62
2022/05/16 10:09:49;;;;;;;7.77;7.13;;;29.20;49.40;;;;;;6205254;28;20275;-63
2022/05/16 10:12:56;;;;;;;7.30;6.70;;;29.50;49.30;;;;;;6205265;28;20228;-63
2022/05/16 10:16:02;;;;;;;8.00;7.40;;;29.60;49.00;;;;;;6206325;28;20225;-64
2022/05/16 10:19:09;;;;;;;7.80;7.20;;;29.90;49.00;;;;;;6202851;28;20240;-64
2022/05/16 10:22:19;;;;;;;7.23;6.70;;;30.00;48.30;;;;;;6204205;28;20217;-63
2022/05/16 10:25:29;;;;;;;8.27;7.57;;;30.10;48.20;;;;;;6205165;28;20236;-63
2022/05/16 10:28:37;;;;;;;7.93;7.33;;;30.30;48.70;;;;;;6205501;28;20237;-63
2022/05/16 10:35:10;;;;;;;7.33;6.73;;;30.60;47.30;;;;;;6204678;28;20239;-63
2022/05/16 10:38:22;;;;;;;7.93;7.33;;;30.20;47.90;;;;;;6204738;28;20239;-63
2022/05/16 10:41:31;;;;;;;7.67;6.97;;;29.80;48.50;;;;;;6204417;28;20220;-63
2022/05/16 10:44:39;;;;;;;7.40;6.80;;;29.60;48.50;;;;;;6204891;28;20194;-63
2022/05/16 10:47:51;;;;;;;8.50;7.80;;;29.50;49.70;;;;;;6204003;28;20226;-63
2022/05/16 10:51:02;;;;;;;7.33;6.63;;;29.20;49.80;;;;;;6200870;28;20233;-65
2022/05/16 10:54:07;;;;;;;7.57;6.87;;;29.60;50.10;;;;;;6203613;28;20653;-64
2022/05/16 10:57:29;;;;;;;8.00;7.30;;;29.90;48.90;;;;;;6204331;28;20236;-62
2022/05/16 11:00:38;;;;;;;7.70;7.20;;;30.10;49.10;;;;;;6203945;28;20230;-64
2022/05/16 11:04:32;;;;;;;6.60;6.10;;;29.90;49.00;;;;;;6202747;28;20234;-64
2022/05/16 11:07:42;;;;;;;7.40;6.70;;;30.10;48.30;;;;;;6202303;28;20241;-64
2022/05/16 11:10:53;;;;;;;7.63;6.90;;;30.30;47.90;;;;;;6200712;28;20232;-64
2022/05/16 11:14:05;;;;;;;7.47;6.72;;;30.60;47.50;;;;;;6200130;28;20240;-64
2022/05/16 11:17:17;;;;;;;7.05;6.43;;;30.70;47.70;;;;;;6202170;28;20237;-64
2022/05/16 11:20:26;;;;;;;6.90;6.30;;;30.90;47.80;;;;;;6203478;28;20700;-64
2022/05/16 11:23:39;;;;;;;6.30;5.80;;;30.80;47.40;;;;;;6204184;28;20340;-64
2022/05/16 11:26:47;;;;;;;8.65;7.78;;;30.30;48.70;;;;;;6203444;28;20217;-64
2022/05/16 11:30:03;;;;;;;7.05;6.35;;;30.80;48.40;;;;;;6203719;28;20557;-64
2022/05/16 11:33:14;;;;;;;6.72;6.22;;;31.30;47.30;;;;;;6203939;28;20548;-64
2022/05/16 11:36:25;;;;;;;7.63;7.03;;;31.30;46.80;;;;;;6203353;28;20225;-64
2022/05/16 11:39:35;;;;;;;6.30;5.90;;;31.10;46.80;;;;;;6203414;28;20225;-63
2022/05/16 11:42:49;;;;;;;8.05;7.47;;;31.10;47.30;;;;;;6203523;28;20236;-65
2022/05/16 11:46:22;;;;;;;7.65;7.07;;;31.20;46.90;;;;;;6202706;28;20229;-64
2022/05/16 11:49:33;;;;;;;7.60;6.97;;;31.30;47.00;;;;;;6196819;28;20708;-63
2022/05/16 11:53:03;;;;;;;7.57;6.97;;;30.90;47.40;;;;;;6203521;28;20229;-64
2022/05/16 12:03:15;;;;;;;9.05;6.63;;;31.50;47.70;;;;;;6200687;28;20255;-63
2022/05/16 12:06:26;;;;;;;8.15;7.38;;;31.60;46.80;;;;;;6200948;28;20236;-63
2022/05/16 12:09:32;;;;;;;7.35;6.53;;;31.50;47.00;;;;;;6200729;28;20248;-63
2022/05/16 12:12:38;;;;;;;7.15;6.63;;;31.50;46.80;;;;;;6200864;28;20555;-64
2022/05/16 12:15:41;;;;;;;8.60;8.00;;;31.60;46.50;;;;;;6201506;28;20693;-64
2022/05/16 12:18:49;;;;;;;7.60;7.00;;;31.60;46.30;;;;;;6202060;28;20248;-63
2022/05/16 12:21:59;;;;;;;7.75;7.07;;;31.30;47.00;;;;;;6202129;28;20235;-63
2022/05/16 12:25:10;;;;;;;7.35;6.78;;;30.80;48.40;;;;;;6202313;28;20235;-63
2022/05/16 12:28:21;;;;;;;7.15;6.65;;;30.40;49.30;;;;;;6201936;28;20236;-63
2022/05/16 12:31:28;;;;;;;7.87;7.27;;;30.30;49.50;;;;;;6201209;28;20700;-65
2022/05/16 12:34:48;;;;;;;8.50;7.70;;;29.80;50.00;;;;;;6201588;28;20235;-63
2022/05/16 12:37:51;;;;;;;7.47;6.97;;;29.50;50.80;;;;;;6201424;28;20677;-63
2022/05/16 12:41:38;;;;;;;7.70;7.13;;;29.40;51.60;;;;;;6201987;28;20225;-64
2022/05/16 12:44:47;;;;;;;7.27;6.70;;;29.10;51.80;;;;;;6201633;28;20274;-64
2022/05/16 12:48:13;;;;;;;8.83;6.70;;;29.00;52.20;;;;;;6201621;28;20235;-64
2022/05/16 12:51:36;;;;;;;8.00;7.40;;;28.80;52.30;;;;;;6201509;28;20229;-63
2022/05/16 12:55:25;;;;;;;7.23;6.63;;;28.80;52.40;;;;;;6201423;28;20229;-64
2022/05/16 12:58:37;;;;;;;8.87;8.00;;;28.30;53.30;;;;;;6173832;28;20225;-63
2022/05/16 13:01:46;;;;;;;8.40;7.60;;;28.00;53.50;;;;;;6200298;28;20244;-64
2022/05/16 13:05:19;;;;;;;8.13;7.50;;;27.70;54.40;;;;;;6200177;28;20217;-63
2022/05/16 13:08:32;;;;;;;7.70;7.07;;;27.60;54.80;;;;;;6200120;28;20229;-62
2022/05/16 13:11:40;;;;;;;9.00;8.10;;;27.70;54.70;;;;;;6200847;28;20244;-62
2022/05/16 13:14:50;;;;;;;7.27;6.60;;;27.40;55.00;;;;;;6200838;28;20202;-63
2022/05/16 13:17:57;;;;;;;8.17;7.43;;;27.40;55.30;;;;;;6200694;28;20233;-63
2022/05/16 13:21:04;;;;;;;8.57;7.43;;;27.40;55.50;;;;;;6201205;28;20237;-63
2022/05/16 13:24:12;;;;;;;7.97;7.20;;;27.40;55.80;;;;;;6200794;28;20224;-62
2022/05/16 13:30:41;;;;;;;8.17;7.50;;;27.10;57.40;;;;;;6201121;28;20225;-62
2022/05/16 13:33:45;;;;;;;7.93;7.23;;;26.90;57.40;;;;;;6200391;28;20686;-63
2022/05/16 13:36:51;;;;;;;8.50;7.90;;;26.90;56.90;;;;;;6200812;28;20233;-64
2022/05/16 13:40:02;;;;;;;8.20;7.23;;;26.90;57.50;;;;;;6200993;28;20228;-68
2022/05/16 13:43:14;;;;;;;8.20;7.60;;;26.80;57.50;;;;;;6206077;28;20707;-65
2022/05/16 13:46:17;;;;;;;7.87;7.20;;;26.90;58.00;;;;;;6206632;28;20553;-64
2022/05/16 13:49:21;;;;;;;10.40;7.87;;;26.90;57.90;;;;;;6205599;28;20328;-62
2022/05/16 13:52:27;;;;;;;8.90;8.13;;;27.00;58.60;;;;;;6205729;28;20784;-62
2022/05/16 13:55:31;;;;;;;8.10;7.40;;;26.90;59.10;;;;;;6205427;28;20232;-63
2022/05/16 13:58:37;;;;;;;8.57;7.67;;;26.80;59.60;;;;;;6204978;28;20317;-63
2022/05/16 14:01:51;;;;;;;10.70;7.23;;;26.90;59.10;;;;;;6204925;28;20232;-64
2022/05/16 14:04:56;;;;;;;10.10;9.07;;;26.90;58.80;;;;;;6196022;28;20229;-64
2022/05/16 14:07:59;;;;;;;8.93;7.83;;;27.10;58.50;;;;;;6204597;28;20239;-64
2022/05/16 14:11:05;;;;;;;9.27;8.10;;;27.20;59.10;;;;;;6204881;28;20224;-62
2022/05/16 14:14:10;;;;;;;7.63;7.00;;;27.50;58.60;;;;;;6203081;28;20217;-61
2022/05/16 14:17:35;;;;;;;8.47;7.80;;;27.50;58.30;;;;;;6204522;28;20237;-61
2022/05/16 14:20:42;;;;;;;10.97;7.70;;;27.70;57.90;;;;;;6203287;28;20213;-60
2022/05/16 14:23:48;;;;;;;7.60;6.93;;;27.70;57.20;;;;;;6179344;28;20206;-60
2022/05/16 14:26:56;;;;;;;8.50;7.70;;;27.60;57.60;;;;;;6179066;28;20240;-61
2022/05/16 14:30:01;;;;;;;7.83;7.30;;;27.60;57.40;;;;;;6185106;28;20274;-61
2022/05/16 14:33:11;;;;;;;8.93;8.00;;;27.50;57.70;;;;;;6203116;28;20274;-60
2022/05/16 14:36:25;;;;;;;8.10;7.40;;;27.40;58.10;;;;;;6204027;28;20229;-61
2022/05/16 14:39:31;;;;;;;9.57;7.63;;;27.50;58.30;;;;;;6204465;28;20235;-61
2022/05/16 14:42:40;;;;;;;7.60;7.00;;;27.50;59.00;;;;;;6204233;28;20236;-61
2022/05/16 14:49:15;;;;;;;8.50;7.80;;;27.40;59.10;;;;;;6203641;28;20232;-61
2022/05/16 14:52:25;;;;;;;9.20;8.40;;;27.40;59.30;;;;;;6203182;28;20255;-64
2022/05/16 14:55:39;;;;;;;11.30;8.97;;;27.40;59.40;;;;;;6203731;28;20244;-63
2022/05/16 14:58:43;;;;;;;9.23;7.90;;;27.30;59.60;;;;;;6203563;28;20237;-63
2022/05/16 15:05:08;;;;;;;8.90;8.00;;;27.00;60.90;;;;;;6203248;28;20233;-62
2022/05/16 15:08:14;;;;;;;9.53;8.73;;;26.90;61.80;;;;;;6193782;28;20699;-62
2022/05/16 15:11:22;;;;;;;13.40;8.97;;;26.60;62.40;;;;;;6203446;28;20569;-63
2022/05/16 15:14:30;;;;;;;9.47;8.60;;;26.50;62.90;;;;;;6203348;28;20248;-63
2022/05/16 15:17:33;;;;;;;10.83;9.07;;;26.50;63.40;;;;;;6203347;28;20233;-64
2022/05/16 15:20:40;;;;;;;9.63;8.60;;;26.40;63.60;;;;;;6203095;28;20206;-64
2022/05/16 15:23:45;;;;;;;10.30;8.00;;;26.50;63.60;;;;;;6203380;28;20220;-63
2022/05/16 15:26:49;;;;;;;8.90;8.10;;;26.50;63.80;;;;;;6203503;28;20247;-62
2022/05/16 15:29:53;;;;;;;8.50;7.60;;;26.60;64.30;;;;;;6203519;28;20236;-62
2022/05/16 15:32:56;;;;;;;6.93;6.33;;;26.60;63.20;;;;;;6203278;28;20669;-63
2022/05/16 15:36:00;;;;;;;6.87;6.20;;;26.60;62.70;;;;;;6203102;28;20697;-64
2022/05/16 15:39:04;;;;;;;6.20;5.60;;;26.50;59.60;;;;;;6202648;28;20229;-64
2022/05/16 15:42:07;;;;;;;5.87;5.30;;;26.40;58.90;;;;;;6202739;28;20225;-62
2022/05/16 15:45:12;;;;;;;7.70;6.43;;;26.30;58.70;;;;;;6203228;28;20233;-61
2022/05/16 15:48:16;;;;;;;6.20;5.70;;;26.40;59.60;;;;;;6201698;28;20320;-63
2022/05/16 15:51:20;;;;;;;6.03;5.53;;;26.40;60.90;;;;;;6201437;28;20236;-62
2022/05/16 15:54:23;;;;;;;13.00;6.43;;;26.30;61.50;;;;;;6201047;28;20240;-62
2022/05/16 15:57:27;;;;;;;9.33;6.03;;;26.40;62.20;;;;;;6201397;28;20235;-62
2022/05/16 16:00:32;;;;;;;7.47;6.77;;;26.30;62.60;;;;;;6200709;28;20233;-63
2022/05/16 16:10:22;;;;;;;5.80;5.40;;;26.30;63.90;;;;;;6197790;28;20662;-64
2022/05/16 16:13:45;;;;;;;6.07;5.47;;;26.30;64.30;;;;;;6201773;28;20658;-64
2022/05/16 16:16:51;;;;;;;5.40;4.90;;;26.20;63.30;;;;;;6200807;28;20566;-64
2022/05/16 16:19:54;;;;;;;6.10;4.97;;;26.10;62.60;;;;;;6200935;28;20549;-64
2022/05/16 16:22:58;;;;;;;5.53;4.90;;;25.90;62.00;;;;;;6201089;28;20590;-63
2022/05/16 16:26:01;;;;;;;4.63;4.23;;;25.80;62.60;;;;;;6199786;28;20243;-63
2022/05/16 16:29:04;;;;;;;7.47;5.13;;;25.60;63.30;;;;;;6201247;28;20232;-63
2022/05/16 16:32:10;;;;;;;6.00;5.40;;;25.50;63.90;;;;;;6201006;28;20233;-65
2022/05/16 16:35:14;;;;;;;5.23;4.73;;;25.30;64.40;;;;;;6201747;28;20229;-64
2022/05/16 16:38:19;;;;;;;5.37;4.90;;;25.20;65.10;;;;;;6201356;28;20732;-64
2022/05/16 16:41:23;;;;;;;6.03;4.73;;;25.10;65.40;;;;;;6201682;28;20317;-63
2022/05/16 16:44:26;;;;;;;8.00;4.90;;;25.10;65.50;;;;;;6201178;28;20253;-63
2022/05/16 16:47:31;;;;;;;5.17;4.70;;;25.10;65.70;;;;;;6201470;28;20236;-63
2022/05/16 16:50:35;;;;;;;8.83;6.10;;;25.10;66.20;;;;;;6201723;28;20209;-63
2022/05/16 17:00:23;;;;;;;6.87;6.13;;;24.80;69.30;;;;;;6199695;28;20658;-62
2022/05/16 17:03:28;;;;;;;6.93;6.17;;;24.70;70.80;;;;;;6197941;28;20251;-63
2022/05/16 17:06:31;;;;;;;9.53;7.13;;;24.70;71.80;;;;;;6196799;28;20838;-62
2022/05/16 17:09:34;;;;;;;7.13;6.57;;;24.60;72.90;;;;;;6199530;28;20252;-63
2022/05/16 17:12:38;;;;;;;8.87;7.10;;;24.50;74.10;;;;;;6199000;28;20442;-62